createdAt,value
2018-08-25T00:09:46.860Z,8.47
2018-08-25T00:19:49.171Z,9.53
2018-08-25T00:29:50.919Z,8.67
2018-08-25T00:39:52.510Z,8.03
2018-08-25T00:49:54.048Z,9.20
2018-08-25T00:59:56.838Z,9.83
2018-08-25T01:09:58.268Z,8.00
2018-08-25T01:19:59.583Z,9.57
2018-08-25T01:30:00.868Z,12.70
2018-08-25T01:40:02.127Z,10.70
2018-08-25T01:50:03.571Z,7.43
2018-08-25T02:00:04.846Z,6.40
2018-08-25T02:10:06.166Z,9.20
2018-08-25T02:20:07.456Z,8.83
2018-08-25T02:30:08.740Z,7.43
2018-08-25T02:40:11.395Z,7.90
2018-08-25T02:50:12.802Z,10.07
2018-08-25T03:00:14.895Z,9.03
2018-08-25T03:10:16.399Z,8.43
2018-08-25T03:20:18.027Z,9.93
2018-08-25T06:47:14.274Z,11.10
2018-08-25T06:57:15.722Z,13.40
2018-08-25T07:07:18.193Z,10.47
2018-08-25T07:17:19.727Z,9.33
2018-08-25T07:27:21.973Z,9.20
2018-08-25T07:37:23.306Z,9.53
2018-08-25T07:47:24.675Z,9.27
2018-08-25T07:57:26.019Z,11.03
2018-08-25T08:07:27.301Z,13.07
2018-08-25T08:17:28.653Z,10.00
2018-08-25T08:27:29.915Z,10.73
2018-08-25T08:37:31.686Z,12.10
2018-08-25T08:47:33.046Z,11.30
2018-08-25T08:57:34.326Z,10.60
2018-08-25T09:07:35.592Z,8.97
2018-08-25T09:17:38.970Z,8.20
2018-08-25T09:27:40.250Z,9.47
2018-08-25T09:37:41.529Z,8.70
2018-08-25T09:47:42.954Z,8.00
2018-08-25T09:57:44.210Z,8.77
2018-08-25T10:07:45.446Z,10.40
2018-08-25T10:17:46.707Z,8.07
2018-08-25T10:27:47.981Z,8.13
2018-08-25T10:37:49.243Z,9.43
2018-08-25T10:47:50.518Z,7.57
2018-08-25T10:57:51.795Z,9.43
2018-08-25T11:07:53.055Z,8.10
2018-08-25T11:17:54.318Z,7.43
2018-08-25T11:27:55.590Z,7.90
2018-08-25T11:37:56.867Z,7.80
2018-08-25T11:47:58.115Z,9.50
2018-08-25T11:58:00.125Z,10.33
2018-08-25T12:08:01.402Z,10.57
2018-08-25T12:18:02.809Z,12.13
2018-08-25T12:28:04.671Z,12.10
2018-08-25T12:38:07.136Z,9.30
2018-08-25T12:58:14.900Z,9.20
2018-08-25T13:08:16.192Z,7.43
2018-08-25T13:18:17.447Z,8.43
2018-08-25T13:28:18.761Z,9.67
2018-08-25T13:38:20.029Z,8.77
2018-08-25T13:48:21.275Z,6.93
2018-08-25T13:58:22.646Z,8.57
2018-08-25T14:08:24.099Z,8.07
2018-08-25T14:18:25.289Z,9.57
2018-08-25T14:28:26.554Z,6.50
2018-08-25T14:38:27.831Z,7.40
2018-08-25T14:48:29.866Z,8.50
2018-08-25T14:58:31.144Z,7.30
2018-08-25T15:08:32.426Z,10.50
2018-08-25T15:18:33.868Z,10.00
2018-08-25T15:28:35.131Z,8.87
2018-08-25T15:38:37.143Z,9.60
2018-08-25T15:48:39.321Z,8.53
2018-08-25T15:58:40.571Z,7.63
2018-08-25T16:08:42.657Z,9.57
2018-08-25T16:18:44.727Z,9.70
2018-08-25T16:28:45.999Z,7.43
2018-08-25T16:38:47.291Z,6.23
2018-08-25T16:48:48.677Z,6.57
2018-08-25T16:58:50.155Z,7.27
2018-08-25T17:08:51.616Z,6.73
2018-08-25T17:18:53.121Z,6.70
2018-08-25T17:28:54.389Z,6.40
2018-08-25T17:38:55.626Z,6.37
2018-08-25T17:48:56.883Z,5.23
2018-08-25T17:58:58.136Z,11.47
2018-08-25T18:08:59.404Z,6.83
2018-08-25T18:19:00.677Z,7.40
2018-08-25T18:29:01.986Z,5.47
2018-08-25T18:39:03.248Z,4.67
2018-08-25T18:49:04.515Z,5.60
2018-08-25T18:59:05.770Z,4.37
2018-08-25T19:09:07.030Z,4.80
2018-08-25T19:19:09.090Z,4.03
2018-08-25T19:29:10.331Z,4.70
2018-08-25T19:39:12.509Z,4.13
2018-08-25T19:49:13.748Z,3.20
2018-08-25T19:59:15.776Z,3.20
2018-08-25T20:09:17.084Z,4.00
2018-08-25T20:19:19.090Z,5.83
2018-08-25T20:29:20.352Z,4.83
2018-08-25T20:39:21.603Z,6.70
2018-08-25T20:49:22.887Z,5.20
2018-08-25T20:59:24.125Z,4.80
2018-08-25T21:09:25.353Z,7.00
2018-08-25T21:19:27.353Z,6.13
2018-08-25T21:29:28.607Z,5.23
2018-08-25T21:39:29.848Z,5.60
2018-08-25T21:49:31.868Z,6.10
2018-08-25T21:59:33.910Z,4.23
2018-08-25T22:09:35.171Z,4.30
2018-08-25T22:19:37.237Z,4.70
2018-08-25T22:29:38.540Z,5.13
2018-08-25T22:39:39.831Z,5.20
2018-08-25T22:49:41.105Z,4.63
2018-08-25T22:59:42.342Z,4.77
2018-08-25T23:09:43.615Z,5.00
2018-08-25T23:19:44.881Z,4.30
2018-08-25T23:29:46.166Z,7.57
2018-08-25T23:39:47.434Z,3.60
2018-08-25T23:49:48.710Z,4.47
2018-08-25T23:59:50.008Z,4.60
